Cirencester, United Kingdom
Current Conditions -  °F | °C
As of 1:36 AM on Wednesday 26 Nov 2014 (Local Time) from EGVA Reporting Station
Light Rain Light Rain  
Wind Chill: 40°   Ceiling: 700
Heat Index: 45°   Visibility: 6mi
Dew Point: 43°   Wind: 8mph
Humidity: 93%   Direction: 40°NE
Pressure: 29.94"   Gusts: NA
Location:  51.72°N, 1.97°W
Report Text: EGVA 260136Z AUTO 04007KT 9000 -RA BR OVC007 07/06 A2994 RMK AO2 RAB0059 $
Loading
Personal Weather Stations






























Interactive Weather Map New forecast layout! Learn more

10-Day Weather Forecast

Advertisements
Track Severe Weather on mobile